sensor_id;sensor_type;location;lat;lon;timestamp;temperature;humidity
12893;DHT22;6514;48.606;9.222;2023-08-30T00:01:37;12.70;99.90
12893;DHT22;6514;48.606;9.222;2023-08-30T00:04:03;12.70;99.90
12893;DHT22;6514;48.606;9.222;2023-08-30T00:06:30;12.70;99.90
12893;DHT22;6514;48.606;9.222;2023-08-30T00:08:58;12.70;99.90
12893;DHT22;6514;48.606;9.222;2023-08-30T00:11:25;12.70;99.90
12893;DHT22;6514;48.606;9.222;2023-08-30T00:13:51;12.80;99.90
12893;DHT22;6514;48.606;9.222;2023-08-30T00:16:20;12.70;99.90
12893;DHT22;6514;48.606;9.222;2023-08-30T00:18:46;12.70;99.90
12893;DHT22;6514;48.606;9.222;2023-08-30T00:21:13;12.70;99.90
12893;DHT22;6514;48.606;9.222;2023-08-30T00:23:42;12.70;99.90
12893;DHT22;6514;48.606;9.222;2023-08-30T00:26:08;12.70;99.90
12893;DHT22;6514;48.606;9.222;2023-08-30T00:28:35;12.70;99.90
12893;DHT22;6514;48.606;9.222;2023-08-30T00:31:02;12.70;99.90
12893;DHT22;6514;48.606;9.222;2023-08-30T00:33:29;12.70;99.90
12893;DHT22;6514;48.606;9.222;2023-08-30T00:35:57;12.70;99.90
12893;DHT22;6514;48.606;9.222;2023-08-30T00:38:24;12.70;99.90
12893;DHT22;6514;48.606;9.222;2023-08-30T00:40:50;12.70;99.90
12893;DHT22;6514;48.606;9.222;2023-08-30T00:43:17;12.70;99.90
12893;DHT22;6514;48.606;9.222;2023-08-30T00:45:45;12.70;99.90
12893;DHT22;6514;48.606;9.222;2023-08-30T00:48:12;12.60;99.90
12893;DHT22;6514;48.606;9.222;2023-08-30T00:50:42;12.60;99.90
12893;DHT22;6514;48.606;9.222;2023-08-30T00:53:10;12.60;99.90
12893;DHT22;6514;48.606;9.222;2023-08-30T00:55:37;12.60;99.90
12893;DHT22;6514;48.606;9.222;2023-08-30T00:58:04;12.60;99.90
12893;DHT22;6514;48.606;9.222;2023-08-30T01:00:32;12.50;99.90
12893;DHT22;6514;48.606;9.222;2023-08-30T01:02:59;12.60;99.90
12893;DHT22;6514;48.606;9.222;2023-08-30T01:05:26;12.60;99.90
12893;DHT22;6514;48.606;9.222;2023-08-30T01:07:55;12.50;99.90
12893;DHT22;6514;48.606;9.222;2023-08-30T01:10:25;12.50;99.90
12893;DHT22;6514;48.606;9.222;2023-08-30T01:12:58;12.50;99.90
12893;DHT22;6514;48.606;9.222;2023-08-30T01:15:27;12.40;99.90
12893;DHT22;6514;48.606;9.222;2023-08-30T01:17:55;12.40;99.90
12893;DHT22;6514;48.606;9.222;2023-08-30T01:20:24;12.40;99.90
12893;DHT22;6514;48.606;9.222;2023-08-30T01:22:59;12.40;99.90
12893;DHT22;6514;48.606;9.222;2023-08-30T01:25:42;12.40;99.90
12893;DHT22;6514;48.606;9.222;2023-08-30T01:28:15;12.30;99.90
12893;DHT22;6514;48.606;9.222;2023-08-30T01:30:43;12.20;99.90
12893;DHT22;6514;48.606;9.222;2023-08-30T01:33:13;12.20;99.90
12893;DHT22;6514;48.606;9.222;2023-08-30T01:35:41;12.10;99.90
12893;DHT22;6514;48.606;9.222;2023-08-30T01:38:08;12.10;99.90
12893;DHT22;6514;48.606;9.222;2023-08-30T01:40:37;12.10;99.90
12893;DHT22;6514;48.606;9.222;2023-08-30T01:43:06;12.10;99.90
12893;DHT22;6514;48.606;9.222;2023-08-30T01:45:38;12.10;99.90
12893;DHT22;6514;48.606;9.222;2023-08-30T01:48:07;12.10;99.90
12893;DHT22;6514;48.606;9.222;2023-08-30T01:50:34;12.10;99.90
12893;DHT22;6514;48.606;9.222;2023-08-30T01:53:03;12.00;99.90
12893;DHT22;6514;48.606;9.222;2023-08-30T01:55:30;12.10;99.90
12893;DHT22;6514;48.606;9.222;2023-08-30T01:57:58;12.10;99.90
12893;DHT22;6514;48.606;9.222;2023-08-30T02:00:25;12.10;99.90
12893;DHT22;6514;48.606;9.222;2023-08-30T02:02:53;12.10;99.90
12893;DHT22;6514;48.606;9.222;2023-08-30T02:05:20;12.10;99.90
12893;DHT22;6514;48.606;9.222;2023-08-30T02:08:05;12.10;99.90
12893;DHT22;6514;48.606;9.222;2023-08-30T02:10:37;12.20;99.90
12893;DHT22;6514;48.606;9.222;2023-08-30T02:13:07;12.10;99.90
12893;DHT22;6514;48.606;9.222;2023-08-30T02:15:37;12.10;99.90
12893;DHT22;6514;48.606;9.222;2023-08-30T02:18:06;12.20;99.90
12893;DHT22;6514;48.606;9.222;2023-08-30T02:20:33;12.20;99.90
12893;DHT22;6514;48.606;9.222;2023-08-30T02:22:59;12.20;99.90
12893;DHT22;6514;48.606;9.222;2023-08-30T02:25:26;12.20;99.90
12893;DHT22;6514;48.606;9.222;2023-08-30T02:27:53;12.20;99.90
12893;DHT22;6514;48.606;9.222;2023-08-30T02:30:20;12.20;99.90
12893;DHT22;6514;48.606;9.222;2023-08-30T02:32:47;12.20;99.90
12893;DHT22;6514;48.606;9.222;2023-08-30T02:35:15;12.20;99.90
12893;DHT22;6514;48.606;9.222;2023-08-30T02:37:41;12.20;99.90
12893;DHT22;6514;48.606;9.222;2023-08-30T02:40:09;12.20;99.90
12893;DHT22;6514;48.606;9.222;2023-08-30T02:42:36;12.30;99.90
12893;DHT22;6514;48.606;9.222;2023-08-30T02:45:03;12.30;99.90
12893;DHT22;6514;48.606;9.222;2023-08-30T02:47:30;12.30;99.90
12893;DHT22;6514;48.606;9.222;2023-08-30T02:49:57;12.30;99.90
12893;DHT22;6514;48.606;9.222;2023-08-30T02:52:25;12.30;99.90
12893;DHT22;6514;48.606;9.222;2023-08-30T02:54:52;12.30;99.90
12893;DHT22;6514;48.606;9.222;2023-08-30T02:57:19;12.40;99.90
12893;DHT22;6514;48.606;9.222;2023-08-30T02:59:46;12.30;99.90
12893;DHT22;6514;48.606;9.222;2023-08-30T03:02:12;12.40;99.90
12893;DHT22;6514;48.606;9.222;2023-08-30T03:04:39;12.40;99.90
12893;DHT22;6514;48.606;9.222;2023-08-30T03:07:06;12.40;99.90
12893;DHT22;6514;48.606;9.222;2023-08-30T03:09:34;12.40;99.90
12893;DHT22;6514;48.606;9.222;2023-08-30T03:12:01;12.40;99.90
12893;DHT22;6514;48.606;9.222;2023-08-30T03:14:28;12.30;99.90
12893;DHT22;6514;48.606;9.222;2023-08-30T03:16:55;12.30;99.90
12893;DHT22;6514;48.606;9.222;2023-08-30T03:19:21;12.30;99.90
12893;DHT22;6514;48.606;9.222;2023-08-30T03:21:48;12.30;99.90
12893;DHT22;6514;48.606;9.222;2023-08-30T03:24:15;12.30;99.90
12893;DHT22;6514;48.606;9.222;2023-08-30T03:26:44;12.30;99.90
12893;DHT22;6514;48.606;9.222;2023-08-30T03:29:11;12.30;99.90
12893;DHT22;6514;48.606;9.222;2023-08-30T03:31:37;12.30;99.90
12893;DHT22;6514;48.606;9.222;2023-08-30T03:34:04;12.30;99.90
12893;DHT22;6514;48.606;9.222;2023-08-30T03:36:31;12.20;99.90
12893;DHT22;6514;48.606;9.222;2023-08-30T03:38:58;12.20;99.90
12893;DHT22;6514;48.606;9.222;2023-08-30T03:41:25;12.20;99.90
12893;DHT22;6514;48.606;9.222;2023-08-30T03:43:53;12.20;99.90
12893;DHT22;6514;48.606;9.222;2023-08-30T03:46:19;12.10;99.90
12893;DHT22;6514;48.606;9.222;2023-08-30T03:48:46;12.10;99.90
12893;DHT22;6514;48.606;9.222;2023-08-30T03:51:13;12.10;99.90
12893;DHT22;6514;48.606;9.222;2023-08-30T03:53:40;12.00;99.90
12893;DHT22;6514;48.606;9.222;2023-08-30T03:56:06;12.00;99.90
12893;DHT22;6514;48.606;9.222;2023-08-30T03:58:34;12.00;99.90
12893;DHT22;6514;48.606;9.222;2023-08-30T04:01:02;12.00;99.90
12893;DHT22;6514;48.606;9.222;2023-08-30T04:03:28;12.00;99.90
12893;DHT22;6514;48.606;9.222;2023-08-30T04:05:55;12.00;99.90
12893;DHT22;6514;48.606;9.222;2023-08-30T04:08:23;12.00;99.90
12893;DHT22;6514;48.606;9.222;2023-08-30T04:10:52;12.00;99.90
12893;DHT22;6514;48.606;9.222;2023-08-30T04:13:19;12.00;99.90
12893;DHT22;6514;48.606;9.222;2023-08-30T04:15:45;12.00;99.90
12893;DHT22;6514;48.606;9.222;2023-08-30T04:18:14;12.00;99.90
12893;DHT22;6514;48.606;9.222;2023-08-30T04:20:43;12.00;99.90
12893;DHT22;6514;48.606;9.222;2023-08-30T04:23:10;12.00;99.90
12893;DHT22;6514;48.606;9.222;2023-08-30T04:25:37;12.00;99.90
12893;DHT22;6514;48.606;9.222;2023-08-30T04:28:05;12.00;99.90
12893;DHT22;6514;48.606;9.222;2023-08-30T04:30:31;12.00;99.90
12893;DHT22;6514;48.606;9.222;2023-08-30T04:32:58;12.00;99.90
12893;DHT22;6514;48.606;9.222;2023-08-30T04:35:29;12.00;99.90
12893;DHT22;6514;48.606;9.222;2023-08-30T04:37:57;12.00;99.90
12893;DHT22;6514;48.606;9.222;2023-08-30T04:40:24;12.00;99.90
12893;DHT22;6514;48.606;9.222;2023-08-30T04:42:51;12.00;99.90
12893;DHT22;6514;48.606;9.222;2023-08-30T04:45:18;12.00;99.90
12893;DHT22;6514;48.606;9.222;2023-08-30T04:47:44;12.00;99.90
12893;DHT22;6514;48.606;9.222;2023-08-30T04:50:11;11.90;99.90
12893;DHT22;6514;48.606;9.222;2023-08-30T04:52:39;11.90;99.90
12893;DHT22;6514;48.606;9.222;2023-08-30T04:55:08;12.00;99.90
12893;DHT22;6514;48.606;9.222;2023-08-30T04:57:35;12.00;99.90
12893;DHT22;6514;48.606;9.222;2023-08-30T05:00:03;12.00;99.90
12893;DHT22;6514;48.606;9.222;2023-08-30T05:02:30;12.00;99.90
12893;DHT22;6514;48.606;9.222;2023-08-30T05:04:58;12.00;99.90
12893;DHT22;6514;48.606;9.222;2023-08-30T05:07:24;12.00;99.90
12893;DHT22;6514;48.606;9.222;2023-08-30T05:09:52;12.00;99.90
12893;DHT22;6514;48.606;9.222;2023-08-30T05:12:19;12.00;99.90
12893;DHT22;6514;48.606;9.222;2023-08-30T05:14:46;12.00;99.90
12893;DHT22;6514;48.606;9.222;2023-08-30T05:17:13;12.00;99.90
12893;DHT22;6514;48.606;9.222;2023-08-30T05:19:40;12.00;99.90
12893;DHT22;6514;48.606;9.222;2023-08-30T05:22:06;12.10;99.90
12893;DHT22;6514;48.606;9.222;2023-08-30T05:24:33;12.10;99.90
12893;DHT22;6514;48.606;9.222;2023-08-30T05:27:02;12.10;99.90
12893;DHT22;6514;48.606;9.222;2023-08-30T05:29:28;12.20;99.90
12893;DHT22;6514;48.606;9.222;2023-08-30T05:31:55;12.30;99.90
12893;DHT22;6514;48.606;9.222;2023-08-30T05:34:22;12.30;99.90
12893;DHT22;6514;48.606;9.222;2023-08-30T05:36:51;12.40;99.90
12893;DHT22;6514;48.606;9.222;2023-08-30T05:39:18;12.40;99.90
12893;DHT22;6514;48.606;9.222;2023-08-30T05:41:45;12.50;99.90
12893;DHT22;6514;48.606;9.222;2023-08-30T05:44:13;12.50;99.90
12893;DHT22;6514;48.606;9.222;2023-08-30T05:46:40;12.50;99.90
12893;DHT22;6514;48.606;9.222;2023-08-30T05:49:06;12.60;99.90
12893;DHT22;6514;48.606;9.222;2023-08-30T05:51:33;12.70;99.90
12893;DHT22;6514;48.606;9.222;2023-08-30T05:54:00;12.70;99.90
12893;DHT22;6514;48.606;9.222;2023-08-30T05:56:27;12.70;99.90
12893;DHT22;6514;48.606;9.222;2023-08-30T05:58:54;12.70;99.90
12893;DHT22;6514;48.606;9.222;2023-08-30T06:01:22;12.80;99.90
12893;DHT22;6514;48.606;9.222;2023-08-30T06:03:50;12.90;99.90
12893;DHT22;6514;48.606;9.222;2023-08-30T06:06:17;12.90;99.90
12893;DHT22;6514;48.606;9.222;2023-08-30T06:08:44;13.00;99.90
12893;DHT22;6514;48.606;9.222;2023-08-30T06:11:11;13.00;99.90
12893;DHT22;6514;48.606;9.222;2023-08-30T06:13:38;13.10;99.90
12893;DHT22;6514;48.606;9.222;2023-08-30T06:16:04;13.20;99.90
12893;DHT22;6514;48.606;9.222;2023-08-30T06:18:33;13.30;99.90
12893;DHT22;6514;48.606;9.222;2023-08-30T06:20:59;13.30;99.90
12893;DHT22;6514;48.606;9.222;2023-08-30T06:23:26;13.40;99.90
12893;DHT22;6514;48.606;9.222;2023-08-30T06:25:53;13.30;99.90
12893;DHT22;6514;48.606;9.222;2023-08-30T06:28:20;13.50;99.90
12893;DHT22;6514;48.606;9.222;2023-08-30T06:30:47;13.50;99.90
12893;DHT22;6514;48.606;9.222;2023-08-30T06:33:14;13.50;99.90
12893;DHT22;6514;48.606;9.222;2023-08-30T06:35:42;13.60;99.90
12893;DHT22;6514;48.606;9.222;2023-08-30T06:38:09;13.60;99.90
12893;DHT22;6514;48.606;9.222;2023-08-30T06:40:36;13.70;99.90
12893;DHT22;6514;48.606;9.222;2023-08-30T06:43:03;13.80;99.90
12893;DHT22;6514;48.606;9.222;2023-08-30T06:45:30;13.80;99.90
12893;DHT22;6514;48.606;9.222;2023-08-30T06:47:56;13.90;99.90
12893;DHT22;6514;48.606;9.222;2023-08-30T06:50:23;14.00;99.90
12893;DHT22;6514;48.606;9.222;2023-08-30T06:52:51;14.00;99.90
12893;DHT22;6514;48.606;9.222;2023-08-30T06:55:18;14.10;99.90
12893;DHT22;6514;48.606;9.222;2023-08-30T06:57:47;14.20;99.90
12893;DHT22;6514;48.606;9.222;2023-08-30T07:00:15;14.30;99.90
12893;DHT22;6514;48.606;9.222;2023-08-30T07:02:42;14.30;99.90
12893;DHT22;6514;48.606;9.222;2023-08-30T07:05:11;14.30;99.90
12893;DHT22;6514;48.606;9.222;2023-08-30T07:07:38;14.50;99.90
12893;DHT22;6514;48.606;9.222;2023-08-30T07:10:07;14.50;99.90
12893;DHT22;6514;48.606;9.222;2023-08-30T07:12:34;14.60;99.90
12893;DHT22;6514;48.606;9.222;2023-08-30T07:15:01;14.80;99.90
12893;DHT22;6514;48.606;9.222;2023-08-30T07:17:29;15.00;99.90
12893;DHT22;6514;48.606;9.222;2023-08-30T07:19:56;14.90;99.90
12893;DHT22;6514;48.606;9.222;2023-08-30T07:22:22;15.20;99.90
12893;DHT22;6514;48.606;9.222;2023-08-30T07:24:49;15.30;99.90
12893;DHT22;6514;48.606;9.222;2023-08-30T07:27:18;15.40;99.90
12893;DHT22;6514;48.606;9.222;2023-08-30T07:29:44;15.40;99.90
12893;DHT22;6514;48.606;9.222;2023-08-30T07:32:11;15.40;99.90
12893;DHT22;6514;48.606;9.222;2023-08-30T07:34:38;15.50;99.90
12893;DHT22;6514;48.606;9.222;2023-08-30T07:37:05;15.70;99.90
12893;DHT22;6514;48.606;9.222;2023-08-30T07:39:31;15.80;99.90
12893;DHT22;6514;48.606;9.222;2023-08-30T07:41:58;15.90;99.90
12893;DHT22;6514;48.606;9.222;2023-08-30T07:44:26;16.00;99.90
12893;DHT22;6514;48.606;9.222;2023-08-30T07:46:53;16.10;99.90
12893;DHT22;6514;48.606;9.222;2023-08-30T07:49:20;16.10;99.90
12893;DHT22;6514;48.606;9.222;2023-08-30T07:51:46;16.30;99.90
12893;DHT22;6514;48.606;9.222;2023-08-30T07:54:13;16.40;99.90
12893;DHT22;6514;48.606;9.222;2023-08-30T07:56:40;16.50;99.90
12893;DHT22;6514;48.606;9.222;2023-08-30T07:59:07;16.60;99.90
12893;DHT22;6514;48.606;9.222;2023-08-30T08:01:35;16.70;99.90
12893;DHT22;6514;48.606;9.222;2023-08-30T08:04:02;16.60;99.90
12893;DHT22;6514;48.606;9.222;2023-08-30T08:06:28;16.70;99.90
12893;DHT22;6514;48.606;9.222;2023-08-30T08:08:55;16.80;99.90
12893;DHT22;6514;48.606;9.222;2023-08-30T08:11:22;16.80;99.90
12893;DHT22;6514;48.606;9.222;2023-08-30T08:13:49;16.80;99.90
12893;DHT22;6514;48.606;9.222;2023-08-30T08:16:15;16.90;99.90
12893;DHT22;6514;48.606;9.222;2023-08-30T08:18:44;16.90;99.90
12893;DHT22;6514;48.606;9.222;2023-08-30T08:21:10;17.00;99.90
12893;DHT22;6514;48.606;9.222;2023-08-30T08:23:37;17.00;99.90
12893;DHT22;6514;48.606;9.222;2023-08-30T08:26:04;17.10;99.90
12893;DHT22;6514;48.606;9.222;2023-08-30T08:28:33;17.20;99.90
12893;DHT22;6514;48.606;9.222;2023-08-30T08:31:00;17.20;99.90
12893;DHT22;6514;48.606;9.222;2023-08-30T08:33:27;17.30;99.90
12893;DHT22;6514;48.606;9.222;2023-08-30T08:35:56;17.40;99.90
12893;DHT22;6514;48.606;9.222;2023-08-30T08:38:22;17.60;99.90
12893;DHT22;6514;48.606;9.222;2023-08-30T08:40:51;17.70;99.90
12893;DHT22;6514;48.606;9.222;2023-08-30T08:43:19;17.60;99.90
12893;DHT22;6514;48.606;9.222;2023-08-30T08:45:47;17.80;99.90
12893;DHT22;6514;48.606;9.222;2023-08-30T08:48:14;17.80;99.90
12893;DHT22;6514;48.606;9.222;2023-08-30T08:50:42;17.80;99.90
12893;DHT22;6514;48.606;9.222;2023-08-30T08:53:11;17.90;99.90
12893;DHT22;6514;48.606;9.222;2023-08-30T08:55:38;18.00;99.90
12893;DHT22;6514;48.606;9.222;2023-08-30T08:58:06;18.10;99.90
12893;DHT22;6514;48.606;9.222;2023-08-30T09:00:33;18.20;99.90
12893;DHT22;6514;48.606;9.222;2023-08-30T09:03:00;18.30;99.90
12893;DHT22;6514;48.606;9.222;2023-08-30T09:05:30;18.30;99.90
12893;DHT22;6514;48.606;9.222;2023-08-30T09:07:58;18.40;99.90
12893;DHT22;6514;48.606;9.222;2023-08-30T09:10:26;18.50;99.90
12893;DHT22;6514;48.606;9.222;2023-08-30T09:12:53;18.60;99.90
12893;DHT22;6514;48.606;9.222;2023-08-30T09:15:19;18.60;99.90
12893;DHT22;6514;48.606;9.222;2023-08-30T09:17:47;18.80;99.90
12893;DHT22;6514;48.606;9.222;2023-08-30T09:20:15;19.00;99.90
12893;DHT22;6514;48.606;9.222;2023-08-30T09:22:43;19.10;99.90
12893;DHT22;6514;48.606;9.222;2023-08-30T09:25:21;19.10;99.90
12893;DHT22;6514;48.606;9.222;2023-08-30T09:27:50;19.30;99.90
12893;DHT22;6514;48.606;9.222;2023-08-30T09:30:21;19.70;99.90
12893;DHT22;6514;48.606;9.222;2023-08-30T09:32:48;19.90;99.90
12893;DHT22;6514;48.606;9.222;2023-08-30T09:35:15;19.90;99.90
12893;DHT22;6514;48.606;9.222;2023-08-30T09:37:44;20.00;99.90
12893;DHT22;6514;48.606;9.222;2023-08-30T09:40:11;20.00;99.90
12893;DHT22;6514;48.606;9.222;2023-08-30T09:42:40;20.10;99.90
12893;DHT22;6514;48.606;9.222;2023-08-30T09:45:18;20.20;99.90
12893;DHT22;6514;48.606;9.222;2023-08-30T09:47:47;20.40;99.90
12893;DHT22;6514;48.606;9.222;2023-08-30T09:50:17;20.50;99.90
12893;DHT22;6514;48.606;9.222;2023-08-30T09:52:45;20.70;99.90
12893;DHT22;6514;48.606;9.222;2023-08-30T09:55:13;20.60;99.90
12893;DHT22;6514;48.606;9.222;2023-08-30T09:57:42;20.60;99.90
12893;DHT22;6514;48.606;9.222;2023-08-30T10:00:10;20.60;99.90
12893;DHT22;6514;48.606;9.222;2023-08-30T10:02:40;20.70;99.90
12893;DHT22;6514;48.606;9.222;2023-08-30T10:05:10;20.70;99.90
12893;DHT22;6514;48.606;9.222;2023-08-30T10:07:38;21.00;99.90
12893;DHT22;6514;48.606;9.222;2023-08-30T10:10:05;21.10;99.90
12893;DHT22;6514;48.606;9.222;2023-08-30T10:12:33;21.00;99.90
12893;DHT22;6514;48.606;9.222;2023-08-30T10:15:00;20.70;99.90
12893;DHT22;6514;48.606;9.222;2023-08-30T10:17:28;20.40;99.90
12893;DHT22;6514;48.606;9.222;2023-08-30T10:19:59;20.50;99.90
12893;DHT22;6514;48.606;9.222;2023-08-30T10:22:28;20.60;99.90
12893;DHT22;6514;48.606;9.222;2023-08-30T10:25:02;20.90;99.90
12893;DHT22;6514;48.606;9.222;2023-08-30T10:27:30;20.80;99.90
12893;DHT22;6514;48.606;9.222;2023-08-30T10:29:59;20.60;99.90
12893;DHT22;6514;48.606;9.222;2023-08-30T10:32:27;20.60;99.90
12893;DHT22;6514;48.606;9.222;2023-08-30T10:34:54;20.90;99.90
12893;DHT22;6514;48.606;9.222;2023-08-30T10:37:26;20.80;99.90
12893;DHT22;6514;48.606;9.222;2023-08-30T10:39:59;21.20;99.90
12893;DHT22;6514;48.606;9.222;2023-08-30T10:42:26;21.50;99.90
12893;DHT22;6514;48.606;9.222;2023-08-30T10:44:58;21.50;99.90
12893;DHT22;6514;48.606;9.222;2023-08-30T10:47:27;21.90;99.90
12893;DHT22;6514;48.606;9.222;2023-08-30T10:49:55;21.90;99.90
12893;DHT22;6514;48.606;9.222;2023-08-30T10:52:22;21.70;99.90
12893;DHT22;6514;48.606;9.222;2023-08-30T10:54:51;22.00;99.90
12893;DHT22;6514;48.606;9.222;2023-08-30T10:57:23;22.50;99.90
12893;DHT22;6514;48.606;9.222;2023-08-30T11:00:08;23.00;99.90
12893;DHT22;6514;48.606;9.222;2023-08-30T11:02:36;23.50;99.90
12893;DHT22;6514;48.606;9.222;2023-08-30T11:05:06;23.90;99.90
12893;DHT22;6514;48.606;9.222;2023-08-30T11:07:33;24.10;99.90
12893;DHT22;6514;48.606;9.222;2023-08-30T11:10:04;23.90;99.90
12893;DHT22;6514;48.606;9.222;2023-08-30T11:12:31;23.80;99.90
12893;DHT22;6514;48.606;9.222;2023-08-30T11:14:58;23.90;99.90
12893;DHT22;6514;48.606;9.222;2023-08-30T11:17:26;24.00;99.90
12893;DHT22;6514;48.606;9.222;2023-08-30T11:19:58;24.20;99.90
12893;DHT22;6514;48.606;9.222;2023-08-30T11:22:25;24.00;99.90
12893;DHT22;6514;48.606;9.222;2023-08-30T11:24:52;24.30;99.90
12893;DHT22;6514;48.606;9.222;2023-08-30T11:27:20;24.40;99.90
12893;DHT22;6514;48.606;9.222;2023-08-30T11:29:47;24.90;99.90
12893;DHT22;6514;48.606;9.222;2023-08-30T11:32:14;24.50;99.90
12893;DHT22;6514;48.606;9.222;2023-08-30T11:34:40;24.40;99.90
12893;DHT22;6514;48.606;9.222;2023-08-30T11:37:08;23.90;99.90
12893;DHT22;6514;48.606;9.222;2023-08-30T11:39:35;23.80;99.90
12893;DHT22;6514;48.606;9.222;2023-08-30T11:42:06;24.20;99.90
12893;DHT22;6514;48.606;9.222;2023-08-30T11:44:36;24.60;99.90
12893;DHT22;6514;48.606;9.222;2023-08-30T11:47:06;25.10;99.90
12893;DHT22;6514;48.606;9.222;2023-08-30T11:49:34;25.80;99.90
12893;DHT22;6514;48.606;9.222;2023-08-30T11:52:02;26.10;99.90
12893;DHT22;6514;48.606;9.222;2023-08-30T11:54:29;26.10;99.90
12893;DHT22;6514;48.606;9.222;2023-08-30T11:56:56;25.70;99.90
12893;DHT22;6514;48.606;9.222;2023-08-30T11:59:23;25.40;99.90
12893;DHT22;6514;48.606;9.222;2023-08-30T12:01:53;24.90;99.90
12893;DHT22;6514;48.606;9.222;2023-08-30T12:04:20;24.80;99.90
12893;DHT22;6514;48.606;9.222;2023-08-30T12:06:52;24.50;99.90
12893;DHT22;6514;48.606;9.222;2023-08-30T12:09:19;24.30;99.90
12893;DHT22;6514;48.606;9.222;2023-08-30T12:11:47;24.10;99.90
12893;DHT22;6514;48.606;9.222;2023-08-30T12:14:14;24.20;99.90
12893;DHT22;6514;48.606;9.222;2023-08-30T12:16:42;24.20;99.90
12893;DHT22;6514;48.606;9.222;2023-08-30T12:19:10;24.20;99.90
12893;DHT22;6514;48.606;9.222;2023-08-30T12:21:41;23.90;99.90
12893;DHT22;6514;48.606;9.222;2023-08-30T12:24:08;23.40;99.90
12893;DHT22;6514;48.606;9.222;2023-08-30T12:26:35;22.70;99.90
12893;DHT22;6514;48.606;9.222;2023-08-30T12:29:04;22.00;99.90
12893;DHT22;6514;48.606;9.222;2023-08-30T12:31:31;21.50;99.90
12893;DHT22;6514;48.606;9.222;2023-08-30T12:33:58;21.00;99.90
12893;DHT22;6514;48.606;9.222;2023-08-30T12:36:26;20.50;99.90
12893;DHT22;6514;48.606;9.222;2023-08-30T12:38:53;20.10;99.90
12893;DHT22;6514;48.606;9.222;2023-08-30T12:41:20;19.80;99.90
12893;DHT22;6514;48.606;9.222;2023-08-30T12:43:48;19.70;99.90
12893;DHT22;6514;48.606;9.222;2023-08-30T12:46:15;19.60;99.90
12893;DHT22;6514;48.606;9.222;2023-08-30T12:48:42;19.50;99.90
12893;DHT22;6514;48.606;9.222;2023-08-30T12:51:09;19.50;99.90
12893;DHT22;6514;48.606;9.222;2023-08-30T12:53:37;19.60;99.90
12893;DHT22;6514;48.606;9.222;2023-08-30T12:56:04;19.80;99.90
12893;DHT22;6514;48.606;9.222;2023-08-30T12:58:31;19.70;99.90
12893;DHT22;6514;48.606;9.222;2023-08-30T13:00:57;19.60;99.90
12893;DHT22;6514;48.606;9.222;2023-08-30T13:03:24;19.50;99.90
12893;DHT22;6514;48.606;9.222;2023-08-30T13:05:51;19.40;99.90
12893;DHT22;6514;48.606;9.222;2023-08-30T13:08:18;19.20;99.90
12893;DHT22;6514;48.606;9.222;2023-08-30T13:10:46;19.10;99.90
12893;DHT22;6514;48.606;9.222;2023-08-30T13:13:13;19.00;99.90
12893;DHT22;6514;48.606;9.222;2023-08-30T13:15:40;18.90;99.90
12893;DHT22;6514;48.606;9.222;2023-08-30T13:18:07;18.90;99.90
12893;DHT22;6514;48.606;9.222;2023-08-30T13:20:38;18.90;99.90
12893;DHT22;6514;48.606;9.222;2023-08-30T13:23:04;18.80;99.90
12893;DHT22;6514;48.606;9.222;2023-08-30T13:25:31;18.80;99.90
12893;DHT22;6514;48.606;9.222;2023-08-30T13:27:59;18.80;99.90
12893;DHT22;6514;48.606;9.222;2023-08-30T13:30:26;18.80;99.90
12893;DHT22;6514;48.606;9.222;2023-08-30T13:32:53;18.60;99.90
12893;DHT22;6514;48.606;9.222;2023-08-30T13:35:20;18.60;99.90
12893;DHT22;6514;48.606;9.222;2023-08-30T13:37:46;18.50;99.90
12893;DHT22;6514;48.606;9.222;2023-08-30T13:40:13;18.50;99.90
12893;DHT22;6514;48.606;9.222;2023-08-30T13:42:40;18.40;99.90
12893;DHT22;6514;48.606;9.222;2023-08-30T13:45:09;18.40;99.90
12893;DHT22;6514;48.606;9.222;2023-08-30T13:47:36;18.30;99.90
12893;DHT22;6514;48.606;9.222;2023-08-30T13:50:03;18.30;99.90
12893;DHT22;6514;48.606;9.222;2023-08-30T13:52:31;18.30;99.90
12893;DHT22;6514;48.606;9.222;2023-08-30T13:54:58;18.40;99.90
12893;DHT22;6514;48.606;9.222;2023-08-30T13:57:25;18.60;99.90
12893;DHT22;6514;48.606;9.222;2023-08-30T13:59:52;19.00;99.90
12893;DHT22;6514;48.606;9.222;2023-08-30T14:02:20;19.50;99.90
12893;DHT22;6514;48.606;9.222;2023-08-30T14:04:47;20.10;99.90
12893;DHT22;6514;48.606;9.222;2023-08-30T14:07:14;20.60;99.90
12893;DHT22;6514;48.606;9.222;2023-08-30T14:09:41;20.70;99.90
12893;DHT22;6514;48.606;9.222;2023-08-30T14:12:08;20.60;99.90
12893;DHT22;6514;48.606;9.222;2023-08-30T14:14:35;20.60;99.90
12893;DHT22;6514;48.606;9.222;2023-08-30T14:17:03;20.70;99.90
12893;DHT22;6514;48.606;9.222;2023-08-30T14:19:33;20.80;99.90
12893;DHT22;6514;48.606;9.222;2023-08-30T14:22:00;21.20;99.90
12893;DHT22;6514;48.606;9.222;2023-08-30T14:24:29;21.70;99.90
12893;DHT22;6514;48.606;9.222;2023-08-30T14:26:56;22.40;99.90
12893;DHT22;6514;48.606;9.222;2023-08-30T14:29:23;22.70;99.90
12893;DHT22;6514;48.606;9.222;2023-08-30T14:31:49;22.80;99.90
12893;DHT22;6514;48.606;9.222;2023-08-30T14:34:16;22.50;99.90
12893;DHT22;6514;48.606;9.222;2023-08-30T14:36:44;22.20;99.90
12893;DHT22;6514;48.606;9.222;2023-08-30T14:39:11;21.90;99.90
12893;DHT22;6514;48.606;9.222;2023-08-30T14:41:38;21.60;99.90
12893;DHT22;6514;48.606;9.222;2023-08-30T14:44:05;21.30;99.90
12893;DHT22;6514;48.606;9.222;2023-08-30T14:46:33;21.20;99.90
12893;DHT22;6514;48.606;9.222;2023-08-30T14:49:00;21.00;99.90
12893;DHT22;6514;48.606;9.222;2023-08-30T14:51:27;20.90;99.90
12893;DHT22;6514;48.606;9.222;2023-08-30T14:53:55;20.90;99.90
12893;DHT22;6514;48.606;9.222;2023-08-30T14:56:22;21.00;99.90
12893;DHT22;6514;48.606;9.222;2023-08-30T14:58:49;21.10;99.90
12893;DHT22;6514;48.606;9.222;2023-08-30T15:01:16;21.10;99.90
12893;DHT22;6514;48.606;9.222;2023-08-30T15:03:43;21.20;99.90
12893;DHT22;6514;48.606;9.222;2023-08-30T15:06:10;21.30;99.90
12893;DHT22;6514;48.606;9.222;2023-08-30T15:08:37;21.40;99.90
12893;DHT22;6514;48.606;9.222;2023-08-30T15:11:05;21.50;99.90
12893;DHT22;6514;48.606;9.222;2023-08-30T15:13:34;21.60;99.90
12893;DHT22;6514;48.606;9.222;2023-08-30T15:16:01;21.40;99.90
12893;DHT22;6514;48.606;9.222;2023-08-30T15:18:28;21.30;99.90
12893;DHT22;6514;48.606;9.222;2023-08-30T15:20:54;21.10;99.90
12893;DHT22;6514;48.606;9.222;2023-08-30T15:23:21;20.90;99.90
12893;DHT22;6514;48.606;9.222;2023-08-30T15:25:48;20.80;99.90
12893;DHT22;6514;48.606;9.222;2023-08-30T15:28:17;20.60;99.90
12893;DHT22;6514;48.606;9.222;2023-08-30T15:30:44;20.60;99.90
12893;DHT22;6514;48.606;9.222;2023-08-30T15:33:12;20.50;99.90
12893;DHT22;6514;48.606;9.222;2023-08-30T15:35:40;20.50;99.90
12893;DHT22;6514;48.606;9.222;2023-08-30T15:38:07;20.50;99.90
12893;DHT22;6514;48.606;9.222;2023-08-30T15:40:34;20.50;99.90
12893;DHT22;6514;48.606;9.222;2023-08-30T15:43:01;20.50;99.90
12893;DHT22;6514;48.606;9.222;2023-08-30T15:45:30;20.70;99.90
12893;DHT22;6514;48.606;9.222;2023-08-30T15:47:56;20.80;99.90